sensor_id;sensor_type;location;lat;lon;timestamp;temperature;humidity
12307;DHT22;6216;51.146;7.008;2022-07-23T00:01:33;19.70;99.90
12307;DHT22;6216;51.146;7.008;2022-07-23T00:04:01;19.70;99.90
12307;DHT22;6216;51.146;7.008;2022-07-23T00:06:29;19.60;99.90
12307;DHT22;6216;51.146;7.008;2022-07-23T00:08:57;19.50;99.90
12307;DHT22;6216;51.146;7.008;2022-07-23T00:11:25;19.50;99.90
12307;DHT22;6216;51.146;7.008;2022-07-23T00:13:54;19.60;99.90
12307;DHT22;6216;51.146;7.008;2022-07-23T00:16:25;19.60;99.90
12307;DHT22;6216;51.146;7.008;2022-07-23T00:18:52;19.60;99.90
12307;DHT22;6216;51.146;7.008;2022-07-23T00:21:20;19.60;99.90
12307;DHT22;6216;51.146;7.008;2022-07-23T00:23:48;19.60;99.90
12307;DHT22;6216;51.146;7.008;2022-07-23T00:26:16;19.50;99.90
12307;DHT22;6216;51.146;7.008;2022-07-23T00:28:44;19.40;99.90
12307;DHT22;6216;51.146;7.008;2022-07-23T00:31:13;19.40;99.90
12307;DHT22;6216;51.146;7.008;2022-07-23T00:33:41;19.30;99.90
12307;DHT22;6216;51.146;7.008;2022-07-23T00:36:09;19.30;99.90
12307;DHT22;6216;51.146;7.008;2022-07-23T00:38:36;19.30;99.90
12307;DHT22;6216;51.146;7.008;2022-07-23T00:41:05;19.30;99.90
12307;DHT22;6216;51.146;7.008;2022-07-23T00:43:33;19.30;99.90
12307;DHT22;6216;51.146;7.008;2022-07-23T00:46:00;19.30;99.90
12307;DHT22;6216;51.146;7.008;2022-07-23T00:48:30;19.30;99.90
12307;DHT22;6216;51.146;7.008;2022-07-23T00:50:58;19.40;99.90
12307;DHT22;6216;51.146;7.008;2022-07-23T00:53:26;19.40;99.90
12307;DHT22;6216;51.146;7.008;2022-07-23T00:55:54;19.50;99.90
12307;DHT22;6216;51.146;7.008;2022-07-23T00:58:22;19.50;99.90
12307;DHT22;6216;51.146;7.008;2022-07-23T01:00:49;19.50;99.90
12307;DHT22;6216;51.146;7.008;2022-07-23T01:03:17;19.50;99.90
12307;DHT22;6216;51.146;7.008;2022-07-23T01:05:47;19.50;99.90
12307;DHT22;6216;51.146;7.008;2022-07-23T01:08:14;19.50;99.90
12307;DHT22;6216;51.146;7.008;2022-07-23T01:10:44;19.40;99.90
12307;DHT22;6216;51.146;7.008;2022-07-23T01:13:12;19.40;99.90
12307;DHT22;6216;51.146;7.008;2022-07-23T01:15:40;19.50;99.90
12307;DHT22;6216;51.146;7.008;2022-07-23T01:18:08;19.50;99.90
12307;DHT22;6216;51.146;7.008;2022-07-23T01:20:36;19.60;99.90
12307;DHT22;6216;51.146;7.008;2022-07-23T01:23:05;19.70;99.90
12307;DHT22;6216;51.146;7.008;2022-07-23T01:25:33;19.70;99.90
12307;DHT22;6216;51.146;7.008;2022-07-23T01:28:01;19.70;99.90
12307;DHT22;6216;51.146;7.008;2022-07-23T01:30:29;19.70;99.90
12307;DHT22;6216;51.146;7.008;2022-07-23T01:32:57;19.60;99.90
12307;DHT22;6216;51.146;7.008;2022-07-23T01:35:24;19.60;99.90
12307;DHT22;6216;51.146;7.008;2022-07-23T01:37:52;19.50;99.90
12307;DHT22;6216;51.146;7.008;2022-07-23T01:40:22;19.50;99.90
12307;DHT22;6216;51.146;7.008;2022-07-23T01:42:50;19.50;99.90
12307;DHT22;6216;51.146;7.008;2022-07-23T01:45:18;19.60;99.90
12307;DHT22;6216;51.146;7.008;2022-07-23T01:47:46;19.50;99.90
12307;DHT22;6216;51.146;7.008;2022-07-23T01:50:14;19.50;99.90
12307;DHT22;6216;51.146;7.008;2022-07-23T01:52:42;19.60;99.90
12307;DHT22;6216;51.146;7.008;2022-07-23T01:55:10;19.50;99.90
12307;DHT22;6216;51.146;7.008;2022-07-23T01:57:46;19.40;99.90
12307;DHT22;6216;51.146;7.008;2022-07-23T02:00:14;19.30;99.90
12307;DHT22;6216;51.146;7.008;2022-07-23T02:02:42;19.30;99.90
12307;DHT22;6216;51.146;7.008;2022-07-23T02:05:10;19.20;99.90
12307;DHT22;6216;51.146;7.008;2022-07-23T02:07:37;19.20;99.90
12307;DHT22;6216;51.146;7.008;2022-07-23T02:10:06;19.20;99.90
12307;DHT22;6216;51.146;7.008;2022-07-23T02:12:34;19.20;99.90
12307;DHT22;6216;51.146;7.008;2022-07-23T02:15:05;19.20;99.90
12307;DHT22;6216;51.146;7.008;2022-07-23T02:17:35;19.20;99.90
12307;DHT22;6216;51.146;7.008;2022-07-23T02:20:04;19.20;99.90
12307;DHT22;6216;51.146;7.008;2022-07-23T02:22:33;19.20;99.90
12307;DHT22;6216;51.146;7.008;2022-07-23T02:25:01;19.20;99.90
12307;DHT22;6216;51.146;7.008;2022-07-23T02:27:29;19.20;99.90
12307;DHT22;6216;51.146;7.008;2022-07-23T02:29:57;19.20;99.90
12307;DHT22;6216;51.146;7.008;2022-07-23T02:32:26;19.20;99.90
12307;DHT22;6216;51.146;7.008;2022-07-23T02:34:54;19.20;99.90
12307;DHT22;6216;51.146;7.008;2022-07-23T02:37:22;19.20;99.90
12307;DHT22;6216;51.146;7.008;2022-07-23T02:39:50;19.20;99.90
12307;DHT22;6216;51.146;7.008;2022-07-23T02:42:18;19.20;99.90
12307;DHT22;6216;51.146;7.008;2022-07-23T02:44:45;19.20;99.90
12307;DHT22;6216;51.146;7.008;2022-07-23T02:47:13;19.20;99.90
12307;DHT22;6216;51.146;7.008;2022-07-23T02:49:42;19.10;99.90
12307;DHT22;6216;51.146;7.008;2022-07-23T02:52:10;19.10;99.90
12307;DHT22;6216;51.146;7.008;2022-07-23T02:54:38;19.10;99.90
12307;DHT22;6216;51.146;7.008;2022-07-23T02:57:06;19.00;99.90
12307;DHT22;6216;51.146;7.008;2022-07-23T02:59:34;19.00;99.90
12307;DHT22;6216;51.146;7.008;2022-07-23T03:02:01;19.00;99.90
12307;DHT22;6216;51.146;7.008;2022-07-23T03:04:29;19.00;99.90
12307;DHT22;6216;51.146;7.008;2022-07-23T03:06:58;19.00;99.90
12307;DHT22;6216;51.146;7.008;2022-07-23T03:09:26;19.00;99.90
12307;DHT22;6216;51.146;7.008;2022-07-23T03:11:54;19.00;99.90
12307;DHT22;6216;51.146;7.008;2022-07-23T03:14:22;18.90;99.90
12307;DHT22;6216;51.146;7.008;2022-07-23T03:16:50;18.90;99.90
12307;DHT22;6216;51.146;7.008;2022-07-23T03:19:17;18.90;99.90
12307;DHT22;6216;51.146;7.008;2022-07-23T03:21:45;18.90;99.90
12307;DHT22;6216;51.146;7.008;2022-07-23T03:24:14;18.80;99.90
12307;DHT22;6216;51.146;7.008;2022-07-23T03:26:44;18.90;99.90
12307;DHT22;6216;51.146;7.008;2022-07-23T03:29:12;18.80;99.90
12307;DHT22;6216;51.146;7.008;2022-07-23T03:31:40;18.80;99.90
12307;DHT22;6216;51.146;7.008;2022-07-23T03:34:08;18.80;99.90
12307;DHT22;6216;51.146;7.008;2022-07-23T03:36:36;18.70;99.90
12307;DHT22;6216;51.146;7.008;2022-07-23T03:39:04;18.70;99.90
12307;DHT22;6216;51.146;7.008;2022-07-23T03:41:39;18.60;99.90
12307;DHT22;6216;51.146;7.008;2022-07-23T03:44:07;18.50;99.90
12307;DHT22;6216;51.146;7.008;2022-07-23T03:46:35;18.40;99.90
12307;DHT22;6216;51.146;7.008;2022-07-23T03:49:03;18.40;99.90
12307;DHT22;6216;51.146;7.008;2022-07-23T03:51:31;18.40;99.90
12307;DHT22;6216;51.146;7.008;2022-07-23T03:53:59;18.40;99.90
12307;DHT22;6216;51.146;7.008;2022-07-23T03:56:27;18.40;99.90
12307;DHT22;6216;51.146;7.008;2022-07-23T03:58:56;18.40;99.90
12307;DHT22;6216;51.146;7.008;2022-07-23T04:01:25;18.40;99.90
12307;DHT22;6216;51.146;7.008;2022-07-23T04:03:52;18.50;99.90
12307;DHT22;6216;51.146;7.008;2022-07-23T04:06:20;18.40;99.90
12307;DHT22;6216;51.146;7.008;2022-07-23T04:08:48;18.40;99.90
12307;DHT22;6216;51.146;7.008;2022-07-23T04:11:16;18.40;99.90
12307;DHT22;6216;51.146;7.008;2022-07-23T04:13:44;18.30;99.90
12307;DHT22;6216;51.146;7.008;2022-07-23T04:16:13;18.30;99.90
12307;DHT22;6216;51.146;7.008;2022-07-23T04:18:41;18.40;99.90
12307;DHT22;6216;51.146;7.008;2022-07-23T04:21:09;18.30;99.90
12307;DHT22;6216;51.146;7.008;2022-07-23T04:23:37;18.40;99.90
12307;DHT22;6216;51.146;7.008;2022-07-23T04:26:05;18.40;99.90
12307;DHT22;6216;51.146;7.008;2022-07-23T04:28:32;18.40;99.90
12307;DHT22;6216;51.146;7.008;2022-07-23T04:31:00;18.40;99.90
12307;DHT22;6216;51.146;7.008;2022-07-23T04:33:29;18.50;99.90
12307;DHT22;6216;51.146;7.008;2022-07-23T04:35:57;18.50;99.90
12307;DHT22;6216;51.146;7.008;2022-07-23T04:38:25;18.50;99.90
12307;DHT22;6216;51.146;7.008;2022-07-23T04:40:53;18.50;99.90
12307;DHT22;6216;51.146;7.008;2022-07-23T04:43:21;18.50;99.90
12307;DHT22;6216;51.146;7.008;2022-07-23T04:45:48;18.50;99.90
12307;DHT22;6216;51.146;7.008;2022-07-23T04:48:16;18.50;99.90
12307;DHT22;6216;51.146;7.008;2022-07-23T04:50:46;18.50;99.90
12307;DHT22;6216;51.146;7.008;2022-07-23T04:53:13;18.50;99.90
12307;DHT22;6216;51.146;7.008;2022-07-23T04:55:41;18.50;99.90
12307;DHT22;6216;51.146;7.008;2022-07-23T04:58:09;18.50;99.90
12307;DHT22;6216;51.146;7.008;2022-07-23T05:00:37;18.50;99.90
12307;DHT22;6216;51.146;7.008;2022-07-23T05:03:05;18.60;99.90
12307;DHT22;6216;51.146;7.008;2022-07-23T05:05:33;18.60;99.90
12307;DHT22;6216;51.146;7.008;2022-07-23T05:08:02;18.60;99.90
12307;DHT22;6216;51.146;7.008;2022-07-23T05:10:30;18.70;99.90
12307;DHT22;6216;51.146;7.008;2022-07-23T05:12:58;18.60;99.90
12307;DHT22;6216;51.146;7.008;2022-07-23T05:15:26;18.70;99.90
12307;DHT22;6216;51.146;7.008;2022-07-23T05:17:53;18.70;99.90
12307;DHT22;6216;51.146;7.008;2022-07-23T05:20:21;18.70;99.90
12307;DHT22;6216;51.146;7.008;2022-07-23T05:22:49;18.70;99.90
12307;DHT22;6216;51.146;7.008;2022-07-23T05:25:18;18.80;99.90
12307;DHT22;6216;51.146;7.008;2022-07-23T05:27:46;18.80;99.90
12307;DHT22;6216;51.146;7.008;2022-07-23T05:30:14;18.80;99.90
12307;DHT22;6216;51.146;7.008;2022-07-23T05:32:42;18.90;99.90
12307;DHT22;6216;51.146;7.008;2022-07-23T05:35:10;18.90;99.90
12307;DHT22;6216;51.146;7.008;2022-07-23T05:37:38;18.90;99.90
12307;DHT22;6216;51.146;7.008;2022-07-23T05:40:08;18.80;99.90
12307;DHT22;6216;51.146;7.008;2022-07-23T05:42:39;18.80;99.90
12307;DHT22;6216;51.146;7.008;2022-07-23T05:45:08;18.80;99.90
12307;DHT22;6216;51.146;7.008;2022-07-23T05:47:40;18.70;99.90
12307;DHT22;6216;51.146;7.008;2022-07-23T05:50:09;18.70;99.90
12307;DHT22;6216;51.146;7.008;2022-07-23T05:52:37;18.70;99.90
12307;DHT22;6216;51.146;7.008;2022-07-23T05:55:05;18.70;99.90
12307;DHT22;6216;51.146;7.008;2022-07-23T05:57:34;18.70;99.90
12307;DHT22;6216;51.146;7.008;2022-07-23T06:00:05;18.70;99.90
12307;DHT22;6216;51.146;7.008;2022-07-23T06:02:33;18.80;99.90
12307;DHT22;6216;51.146;7.008;2022-07-23T06:05:01;18.80;99.90
12307;DHT22;6216;51.146;7.008;2022-07-23T06:07:29;18.80;99.90
12307;DHT22;6216;51.146;7.008;2022-07-23T06:09:57;18.80;99.90
12307;DHT22;6216;51.146;7.008;2022-07-23T06:12:24;18.80;99.90
12307;DHT22;6216;51.146;7.008;2022-07-23T06:14:52;18.90;99.90
12307;DHT22;6216;51.146;7.008;2022-07-23T06:17:22;19.00;99.90
12307;DHT22;6216;51.146;7.008;2022-07-23T06:19:51;19.10;99.90
12307;DHT22;6216;51.146;7.008;2022-07-23T06:22:22;19.10;99.90
12307;DHT22;6216;51.146;7.008;2022-07-23T06:24:50;19.20;99.90
12307;DHT22;6216;51.146;7.008;2022-07-23T06:27:18;19.20;99.90
12307;DHT22;6216;51.146;7.008;2022-07-23T06:29:52;19.30;99.90
12307;DHT22;6216;51.146;7.008;2022-07-23T06:32:21;19.30;99.90
12307;DHT22;6216;51.146;7.008;2022-07-23T06:34:49;19.40;99.90
12307;DHT22;6216;51.146;7.008;2022-07-23T06:37:17;19.40;99.90
12307;DHT22;6216;51.146;7.008;2022-07-23T06:39:45;19.50;99.90
12307;DHT22;6216;51.146;7.008;2022-07-23T06:42:12;19.50;99.90
12307;DHT22;6216;51.146;7.008;2022-07-23T06:44:44;19.50;99.90
12307;DHT22;6216;51.146;7.008;2022-07-23T06:47:12;19.60;99.90
12307;DHT22;6216;51.146;7.008;2022-07-23T06:49:41;19.60;99.90
12307;DHT22;6216;51.146;7.008;2022-07-23T06:52:09;19.60;99.90
12307;DHT22;6216;51.146;7.008;2022-07-23T06:54:37;19.70;99.90
12307;DHT22;6216;51.146;7.008;2022-07-23T06:57:04;19.70;99.90
12307;DHT22;6216;51.146;7.008;2022-07-23T06:59:32;19.70;99.90
12307;DHT22;6216;51.146;7.008;2022-07-23T07:02:02;19.70;99.90
12307;DHT22;6216;51.146;7.008;2022-07-23T07:04:30;19.80;99.90
12307;DHT22;6216;51.146;7.008;2022-07-23T07:07:00;19.80;99.90
12307;DHT22;6216;51.146;7.008;2022-07-23T07:09:27;19.80;99.90
12307;DHT22;6216;51.146;7.008;2022-07-23T07:11:55;19.80;99.90
12307;DHT22;6216;51.146;7.008;2022-07-23T07:14:24;19.80;99.90
12307;DHT22;6216;51.146;7.008;2022-07-23T07:16:52;19.90;99.90
12307;DHT22;6216;51.146;7.008;2022-07-23T07:19:19;19.90;99.90
12307;DHT22;6216;51.146;7.008;2022-07-23T07:21:47;19.90;99.90
12307;DHT22;6216;51.146;7.008;2022-07-23T07:24:16;19.90;99.90
12307;DHT22;6216;51.146;7.008;2022-07-23T07:26:44;20.00;99.90
12307;DHT22;6216;51.146;7.008;2022-07-23T07:29:12;20.00;99.90
12307;DHT22;6216;51.146;7.008;2022-07-23T07:31:40;20.10;99.90
12307;DHT22;6216;51.146;7.008;2022-07-23T07:34:08;20.10;99.90
12307;DHT22;6216;51.146;7.008;2022-07-23T07:36:35;20.20;99.90
12307;DHT22;6216;51.146;7.008;2022-07-23T07:39:04;20.30;99.90
12307;DHT22;6216;51.146;7.008;2022-07-23T07:41:34;20.30;99.90
12307;DHT22;6216;51.146;7.008;2022-07-23T07:44:02;20.30;99.90
12307;DHT22;6216;51.146;7.008;2022-07-23T07:46:31;20.40;99.90
12307;DHT22;6216;51.146;7.008;2022-07-23T07:48:59;20.50;99.90
12307;DHT22;6216;51.146;7.008;2022-07-23T07:51:27;20.50;99.90
12307;DHT22;6216;51.146;7.008;2022-07-23T07:53:56;20.60;99.90
12307;DHT22;6216;51.146;7.008;2022-07-23T07:56:24;20.60;99.90
12307;DHT22;6216;51.146;7.008;2022-07-23T07:58:53;20.70;99.90
12307;DHT22;6216;51.146;7.008;2022-07-23T08:01:22;20.80;99.90
12307;DHT22;6216;51.146;7.008;2022-07-23T08:03:51;20.80;99.90
12307;DHT22;6216;51.146;7.008;2022-07-23T08:06:19;20.90;99.90
12307;DHT22;6216;51.146;7.008;2022-07-23T08:08:48;21.00;99.90
12307;DHT22;6216;51.146;7.008;2022-07-23T08:11:26;21.20;99.90
12307;DHT22;6216;51.146;7.008;2022-07-23T08:14:03;21.30;99.90
12307;DHT22;6216;51.146;7.008;2022-07-23T08:16:31;21.30;99.90
12307;DHT22;6216;51.146;7.008;2022-07-23T08:19:19;21.40;99.90
12307;DHT22;6216;51.146;7.008;2022-07-23T08:21:47;21.40;99.90
12307;DHT22;6216;51.146;7.008;2022-07-23T08:24:15;21.50;99.90
12307;DHT22;6216;51.146;7.008;2022-07-23T08:26:43;21.50;99.90
12307;DHT22;6216;51.146;7.008;2022-07-23T08:29:12;21.60;99.90
12307;DHT22;6216;51.146;7.008;2022-07-23T08:31:39;21.70;99.90
12307;DHT22;6216;51.146;7.008;2022-07-23T08:34:07;21.80;99.90
12307;DHT22;6216;51.146;7.008;2022-07-23T08:36:35;21.80;99.90
12307;DHT22;6216;51.146;7.008;2022-07-23T08:39:03;21.90;99.90
12307;DHT22;6216;51.146;7.008;2022-07-23T08:41:31;22.00;99.90
12307;DHT22;6216;51.146;7.008;2022-07-23T08:44:00;22.00;99.90
12307;DHT22;6216;51.146;7.008;2022-07-23T08:46:30;21.90;99.90
12307;DHT22;6216;51.146;7.008;2022-07-23T08:48:59;21.90;99.90
12307;DHT22;6216;51.146;7.008;2022-07-23T08:51:28;22.00;99.90
12307;DHT22;6216;51.146;7.008;2022-07-23T08:53:56;22.00;99.90
12307;DHT22;6216;51.146;7.008;2022-07-23T08:56:25;22.10;99.90
12307;DHT22;6216;51.146;7.008;2022-07-23T08:58:53;22.10;99.90
12307;DHT22;6216;51.146;7.008;2022-07-23T09:01:21;22.10;99.90
12307;DHT22;6216;51.146;7.008;2022-07-23T09:03:51;22.10;99.90
12307;DHT22;6216;51.146;7.008;2022-07-23T09:06:19;22.20;99.90
12307;DHT22;6216;51.146;7.008;2022-07-23T09:08:46;22.30;99.90
12307;DHT22;6216;51.146;7.008;2022-07-23T09:11:16;22.40;99.90
12307;DHT22;6216;51.146;7.008;2022-07-23T09:13:47;22.50;99.90
12307;DHT22;6216;51.146;7.008;2022-07-23T09:16:17;22.60;99.90
12307;DHT22;6216;51.146;7.008;2022-07-23T09:18:47;22.60;99.90
12307;DHT22;6216;51.146;7.008;2022-07-23T09:21:20;22.60;99.90
12307;DHT22;6216;51.146;7.008;2022-07-23T09:23:51;22.60;99.90
12307;DHT22;6216;51.146;7.008;2022-07-23T09:26:31;22.70;99.90
12307;DHT22;6216;51.146;7.008;2022-07-23T09:29:08;22.80;99.90
12307;DHT22;6216;51.146;7.008;2022-07-23T09:31:44;22.80;99.90
12307;DHT22;6216;51.146;7.008;2022-07-23T09:34:15;22.80;99.90
12307;DHT22;6216;51.146;7.008;2022-07-23T09:36:45;22.80;99.90
12307;DHT22;6216;51.146;7.008;2022-07-23T09:39:14;22.90;99.90
12307;DHT22;6216;51.146;7.008;2022-07-23T09:41:45;22.90;99.90
12307;DHT22;6216;51.146;7.008;2022-07-23T09:44:16;23.00;99.90
12307;DHT22;6216;51.146;7.008;2022-07-23T09:46:45;23.10;99.90
12307;DHT22;6216;51.146;7.008;2022-07-23T09:49:18;23.10;99.90
12307;DHT22;6216;51.146;7.008;2022-07-23T09:51:51;23.20;99.90
12307;DHT22;6216;51.146;7.008;2022-07-23T09:54:31;23.20;99.90
12307;DHT22;6216;51.146;7.008;2022-07-23T09:57:02;23.20;99.90
12307;DHT22;6216;51.146;7.008;2022-07-23T09:59:34;23.30;99.90
12307;DHT22;6216;51.146;7.008;2022-07-23T10:02:03;23.40;99.90
12307;DHT22;6216;51.146;7.008;2022-07-23T10:04:32;23.40;99.90
12307;DHT22;6216;51.146;7.008;2022-07-23T10:07:06;23.50;99.90
12307;DHT22;6216;51.146;7.008;2022-07-23T10:09:36;23.50;99.90
12307;DHT22;6216;51.146;7.008;2022-07-23T10:12:08;23.60;99.90
12307;DHT22;6216;51.146;7.008;2022-07-23T10:14:50;23.60;99.90
12307;DHT22;6216;51.146;7.008;2022-07-23T10:17:18;23.70;99.90
12307;DHT22;6216;51.146;7.008;2022-07-23T10:19:46;23.80;99.90
12307;DHT22;6216;51.146;7.008;2022-07-23T10:22:19;23.90;99.90
12307;DHT22;6216;51.146;7.008;2022-07-23T10:24:55;23.90;99.90
12307;DHT22;6216;51.146;7.008;2022-07-23T10:27:43;23.90;99.90
12307;DHT22;6216;51.146;7.008;2022-07-23T10:30:20;23.90;99.90
12307;DHT22;6216;51.146;7.008;2022-07-23T10:33:02;24.00;99.90
12307;DHT22;6216;51.146;7.008;2022-07-23T10:35:43;24.00;99.90
12307;DHT22;6216;51.146;7.008;2022-07-23T10:38:20;24.10;99.90
12307;DHT22;6216;51.146;7.008;2022-07-23T10:40:57;24.20;99.90
12307;DHT22;6216;51.146;7.008;2022-07-23T10:43:26;24.30;99.90
12307;DHT22;6216;51.146;7.008;2022-07-23T10:45:55;24.40;99.90
12307;DHT22;6216;51.146;7.008;2022-07-23T10:48:25;24.50;99.90
12307;DHT22;6216;51.146;7.008;2022-07-23T10:51:07;24.70;99.90
12307;DHT22;6216;51.146;7.008;2022-07-23T10:53:57;24.80;99.90
12307;DHT22;6216;51.146;7.008;2022-07-23T10:56:51;24.80;99.90
12307;DHT22;6216;51.146;7.008;2022-07-23T11:02:36;25.00;99.90
12307;DHT22;6216;51.146;7.008;2022-07-23T11:05:06;25.00;99.90
12307;DHT22;6216;51.146;7.008;2022-07-23T11:07:35;25.10;99.90
12307;DHT22;6216;51.146;7.008;2022-07-23T11:10:05;25.20;99.90
12307;DHT22;6216;51.146;7.008;2022-07-23T11:12:34;25.20;99.90
12307;DHT22;6216;51.146;7.008;2022-07-23T11:15:07;25.20;99.90
12307;DHT22;6216;51.146;7.008;2022-07-23T11:17:37;25.30;99.90
12307;DHT22;6216;51.146;7.008;2022-07-23T11:20:20;25.40;99.90
12307;DHT22;6216;51.146;7.008;2022-07-23T11:22:55;25.40;99.80
12307;DHT22;6216;51.146;7.008;2022-07-23T11:25:34;25.50;99.90
12307;DHT22;6216;51.146;7.008;2022-07-23T11:28:13;25.60;99.90
12307;DHT22;6216;51.146;7.008;2022-07-23T11:30:44;25.70;99.30
12307;DHT22;6216;51.146;7.008;2022-07-23T11:33:18;25.70;99.90
12307;DHT22;6216;51.146;7.008;2022-07-23T11:35:47;25.80;99.90
12307;DHT22;6216;51.146;7.008;2022-07-23T11:38:17;25.90;99.90
12307;DHT22;6216;51.146;7.008;2022-07-23T11:40:52;26.00;98.20
12307;DHT22;6216;51.146;7.008;2022-07-23T11:43:21;26.10;99.60
12307;DHT22;6216;51.146;7.008;2022-07-23T11:45:51;26.20;99.90
12307;DHT22;6216;51.146;7.008;2022-07-23T11:48:22;26.30;99.80
12307;DHT22;6216;51.146;7.008;2022-07-23T11:50:50;26.40;99.90
12307;DHT22;6216;51.146;7.008;2022-07-23T11:53:22;26.40;98.70
12307;DHT22;6216;51.146;7.008;2022-07-23T11:55:52;26.50;98.70
12307;DHT22;6216;51.146;7.008;2022-07-23T11:58:21;26.60;99.50
12307;DHT22;6216;51.146;7.008;2022-07-23T12:00:49;26.70;98.60
12307;DHT22;6216;51.146;7.008;2022-07-23T12:03:17;26.80;98.70
12307;DHT22;6216;51.146;7.008;2022-07-23T12:05:45;26.90;99.20
12307;DHT22;6216;51.146;7.008;2022-07-23T12:08:13;26.90;96.80
12307;DHT22;6216;51.146;7.008;2022-07-23T12:10:42;27.00;95.90
12307;DHT22;6216;51.146;7.008;2022-07-23T12:13:13;27.10;97.50
12307;DHT22;6216;51.146;7.008;2022-07-23T12:15:44;27.20;98.40
12307;DHT22;6216;51.146;7.008;2022-07-23T12:18:14;27.20;98.10
12307;DHT22;6216;51.146;7.008;2022-07-23T12:20:45;27.30;97.30
12307;DHT22;6216;51.146;7.008;2022-07-23T12:23:14;27.30;96.20
12307;DHT22;6216;51.146;7.008;2022-07-23T12:25:48;27.30;96.50
12307;DHT22;6216;51.146;7.008;2022-07-23T12:28:18;27.40;95.70
12307;DHT22;6216;51.146;7.008;2022-07-23T12:30:49;27.50;95.60
12307;DHT22;6216;51.146;7.008;2022-07-23T12:33:22;27.70;96.00
12307;DHT22;6216;51.146;7.008;2022-07-23T12:35:52;27.80;95.30
12307;DHT22;6216;51.146;7.008;2022-07-23T12:38:21;27.80;95.10
12307;DHT22;6216;51.146;7.008;2022-07-23T12:40:51;27.90;95.50
12307;DHT22;6216;51.146;7.008;2022-07-23T12:43:23;27.90;93.00
12307;DHT22;6216;51.146;7.008;2022-07-23T12:45:54;27.90;94.30
12307;DHT22;6216;51.146;7.008;2022-07-23T12:48:26;28.00;93.70
12307;DHT22;6216;51.146;7.008;2022-07-23T12:50:56;28.10;93.60
12307;DHT22;6216;51.146;7.008;2022-07-23T12:53:27;28.10;92.90
12307;DHT22;6216;51.146;7.008;2022-07-23T12:56:01;28.30;93.40
12307;DHT22;6216;51.146;7.008;2022-07-23T12:58:44;28.30;92.70
12307;DHT22;6216;51.146;7.008;2022-07-23T13:01:27;28.30;92.80
12307;DHT22;6216;51.146;7.008;2022-07-23T13:03:58;28.30;92.80
12307;DHT22;6216;51.146;7.008;2022-07-23T13:06:28;28.40;93.20
12307;DHT22;6216;51.146;7.008;2022-07-23T13:08:57;28.40;91.00
12307;DHT22;6216;51.146;7.008;2022-07-23T13:11:27;28.20;91.60
12307;DHT22;6216;51.146;7.008;2022-07-23T13:13:58;28.30;92.30
12307;DHT22;6216;51.146;7.008;2022-07-23T13:16:27;28.40;93.40
12307;DHT22;6216;51.146;7.008;2022-07-23T13:18:55;28.60;93.50
12307;DHT22;6216;51.146;7.008;2022-07-23T13:21:25;28.70;92.40
12307;DHT22;6216;51.146;7.008;2022-07-23T13:23:54;28.80;91.90
12307;DHT22;6216;51.146;7.008;2022-07-23T13:26:23;28.80;92.70
12307;DHT22;6216;51.146;7.008;2022-07-23T13:28:51;28.80;92.40
12307;DHT22;6216;51.146;7.008;2022-07-23T13:31:20;28.80;91.80
12307;DHT22;6216;51.146;7.008;2022-07-23T13:33:50;28.90;91.50
12307;DHT22;6216;51.146;7.008;2022-07-23T13:36:18;28.90;91.40
12307;DHT22;6216;51.146;7.008;2022-07-23T13:38:46;29.00;90.90
12307;DHT22;6216;51.146;7.008;2022-07-23T13:41:14;29.00;91.30
12307;DHT22;6216;51.146;7.008;2022-07-23T13:43:45;29.00;90.70
12307;DHT22;6216;51.146;7.008;2022-07-23T13:46:13;29.00;91.40
12307;DHT22;6216;51.146;7.008;2022-07-23T13:48:42;29.00;90.50
12307;DHT22;6216;51.146;7.008;2022-07-23T13:51:10;28.80;90.70
12307;DHT22;6216;51.146;7.008;2022-07-23T13:53:39;28.80;90.60
12307;DHT22;6216;51.146;7.008;2022-07-23T13:56:07;28.80;90.80
12307;DHT22;6216;51.146;7.008;2022-07-23T13:58:35;28.90;90.70
12307;DHT22;6216;51.146;7.008;2022-07-23T14:01:03;29.10;91.20
12307;DHT22;6216;51.146;7.008;2022-07-23T14:03:31;29.20;91.40
12307;DHT22;6216;51.146;7.008;2022-07-23T14:06:01;29.30;91.00
12307;DHT22;6216;51.146;7.008;2022-07-23T14:08:29;29.40;90.80
12307;DHT22;6216;51.146;7.008;2022-07-23T14:10:56;29.40;90.10
12307;DHT22;6216;51.146;7.008;2022-07-23T14:13:25;29.30;88.30
12307;DHT22;6216;51.146;7.008;2022-07-23T14:15:53;29.20;89.60
12307;DHT22;6216;51.146;7.008;2022-07-23T14:18:21;29.10;89.10
12307;DHT22;6216;51.146;7.008;2022-07-23T14:20:49;28.90;90.10
12307;DHT22;6216;51.146;7.008;2022-07-23T14:23:19;29.00;90.50
12307;DHT22;6216;51.146;7.008;2022-07-23T14:25:47;29.00;90.40
12307;DHT22;6216;51.146;7.008;2022-07-23T14:28:15;29.20;90.70
12307;DHT22;6216;51.146;7.008;2022-07-23T14:30:46;29.20;90.50
12307;DHT22;6216;51.146;7.008;2022-07-23T14:33:14;29.20;90.30
12307;DHT22;6216;51.146;7.008;2022-07-23T14:35:43;29.30;90.30
12307;DHT22;6216;51.146;7.008;2022-07-23T14:38:11;29.30;89.80
12307;DHT22;6216;51.146;7.008;2022-07-23T14:40:41;29.30;90.20
12307;DHT22;6216;51.146;7.008;2022-07-23T14:43:11;29.40;90.60
12307;DHT22;6216;51.146;7.008;2022-07-23T14:45:38;29.50;88.20
12307;DHT22;6216;51.146;7.008;2022-07-23T14:48:06;29.60;87.00
12307;DHT22;6216;51.146;7.008;2022-07-23T14:50:34;29.50;87.80
12307;DHT22;6216;51.146;7.008;2022-07-23T14:53:02;29.30;87.90
12307;DHT22;6216;51.146;7.008;2022-07-23T14:55:30;29.30;89.30
12307;DHT22;6216;51.146;7.008;2022-07-23T14:58:08;29.30;90.10
12307;DHT22;6216;51.146;7.008;2022-07-23T15:00:36;29.30;88.70
12307;DHT22;6216;51.146;7.008;2022-07-23T15:03:04;29.00;87.80
12307;DHT22;6216;51.146;7.008;2022-07-23T15:05:32;29.10;89.70
12307;DHT22;6216;51.146;7.008;2022-07-23T15:08:00;29.10;89.00
12307;DHT22;6216;51.146;7.008;2022-07-23T15:10:28;29.00;88.70
12307;DHT22;6216;51.146;7.008;2022-07-23T15:12:56;28.90;88.60
12307;DHT22;6216;51.146;7.008;2022-07-23T15:15:25;28.90;88.60
12307;DHT22;6216;51.146;7.008;2022-07-23T15:17:53;28.80;88.00
12307;DHT22;6216;51.146;7.008;2022-07-23T15:20:21;28.60;88.10
12307;DHT22;6216;51.146;7.008;2022-07-23T15:23:04;28.60;88.30
12307;DHT22;6216;51.146;7.008;2022-07-23T15:25:34;28.50;88.00
12307;DHT22;6216;51.146;7.008;2022-07-23T15:28:04;28.40;88.30
12307;DHT22;6216;51.146;7.008;2022-07-23T15:30:36;28.50;89.50
12307;DHT22;6216;51.146;7.008;2022-07-23T15:33:05;28.50;90.10
12307;DHT22;6216;51.146;7.008;2022-07-23T15:35:45;28.60;90.60
12307;DHT22;6216;51.146;7.008;2022-07-23T15:38:13;28.60;90.00
12307;DHT22;6216;51.146;7.008;2022-07-23T15:40:51;28.30;88.70
12307;DHT22;6216;51.146;7.008;2022-07-23T15:43:19;28.20;89.70
12307;DHT22;6216;51.146;7.008;2022-07-23T15:45:51;28.00;90.00
12307;DHT22;6216;51.146;7.008;2022-07-23T15:48:20;27.90;90.00
12307;DHT22;6216;51.146;7.008;2022-07-23T15:50:48;28.00;89.90
12307;DHT22;6216;51.146;7.008;2022-07-23T15:53:16;28.00;90.30
12307;DHT22;6216;51.146;7.008;2022-07-23T15:56:03;28.00;90.10
12307;DHT22;6216;51.146;7.008;2022-07-23T15:58:31;28.10;90.10
12307;DHT22;6216;51.146;7.008;2022-07-23T16:01:00;28.20;90.10
12307;DHT22;6216;51.146;7.008;2022-07-23T16:03:30;28.20;89.30